sensor_id;sensor_type;location;lat;lon;timestamp;P1;durP1;ratioP1;P2;durP2;ratioP2
14251;SDS011;7210;51.502;10.722;2024-03-23T00:52:08;2.90;;;2.60;;
14251;SDS011;7210;51.502;10.722;2024-03-23T00:54:37;4.47;;;2.93;;
14251;SDS011;7210;51.502;10.722;2024-03-23T00:57:03;4.50;;;2.67;;
14251;SDS011;7210;51.502;10.722;2024-03-23T00:59:30;4.20;;;2.93;;
14251;SDS011;7210;51.502;10.722;2024-03-23T01:01:56;3.67;;;2.87;;
14251;SDS011;7210;51.502;10.722;2024-03-23T01:04:23;4.47;;;3.20;;
14251;SDS011;7210;51.502;10.722;2024-03-23T01:06:49;5.30;;;2.90;;
14251;SDS011;7210;51.502;10.722;2024-03-23T01:09:22;4.40;;;2.83;;
14251;SDS011;7210;51.502;10.722;2024-03-23T01:11:48;3.60;;;3.30;;
14251;SDS011;7210;51.502;10.722;2024-03-23T01:14:15;6.93;;;3.20;;
14251;SDS011;7210;51.502;10.722;2024-03-23T01:16:44;4.67;;;2.87;;
14251;SDS011;7210;51.502;10.722;2024-03-23T01:19:11;5.53;;;2.87;;
14251;SDS011;7210;51.502;10.722;2024-03-23T01:21:37;4.03;;;2.60;;
14251;SDS011;7210;51.502;10.722;2024-03-23T01:24:05;4.60;;;2.80;;
14251;SDS011;7210;51.502;10.722;2024-03-23T01:26:33;4.23;;;2.87;;
14251;SDS011;7210;51.502;10.722;2024-03-23T01:29:00;4.77;;;3.33;;
14251;SDS011;7210;51.502;10.722;2024-03-23T01:31:26;4.40;;;2.73;;
14251;SDS011;7210;51.502;10.722;2024-03-23T01:33:53;5.90;;;3.23;;
14251;SDS011;7210;51.502;10.722;2024-03-23T01:36:20;6.13;;;3.57;;
14251;SDS011;7210;51.502;10.722;2024-03-23T01:38:47;3.73;;;2.70;;
14251;SDS011;7210;51.502;10.722;2024-03-23T01:41:13;4.17;;;2.90;;
14251;SDS011;7210;51.502;10.722;2024-03-23T01:43:42;4.87;;;3.33;;
14251;SDS011;7210;51.502;10.722;2024-03-23T01:46:08;3.53;;;3.07;;
14251;SDS011;7210;51.502;10.722;2024-03-23T01:48:35;3.90;;;2.67;;
14251;SDS011;7210;51.502;10.722;2024-03-23T01:51:01;3.30;;;2.97;;
14251;SDS011;7210;51.502;10.722;2024-03-23T01:53:30;3.50;;;2.73;;
14251;SDS011;7210;51.502;10.722;2024-03-23T01:55:57;3.40;;;2.70;;
14251;SDS011;7210;51.502;10.722;2024-03-23T01:58:24;3.00;;;2.70;;
14251;SDS011;7210;51.502;10.722;2024-03-23T02:00:52;6.03;;;2.97;;
14251;SDS011;7210;51.502;10.722;2024-03-23T02:03:22;4.60;;;3.50;;
14251;SDS011;7210;51.502;10.722;2024-03-23T02:05:49;3.73;;;2.93;;
14251;SDS011;7210;51.502;10.722;2024-03-23T02:08:17;5.40;;;3.30;;
14251;SDS011;7210;51.502;10.722;2024-03-23T02:10:45;5.33;;;3.17;;
14251;SDS011;7210;51.502;10.722;2024-03-23T02:13:14;3.13;;;2.50;;
14251;SDS011;7210;51.502;10.722;2024-03-23T02:15:41;3.47;;;2.40;;
14251;SDS011;7210;51.502;10.722;2024-03-23T02:18:11;3.27;;;2.63;;
14251;SDS011;7210;51.502;10.722;2024-03-23T02:20:37;4.43;;;2.77;;
14251;SDS011;7210;51.502;10.722;2024-03-23T02:23:10;3.67;;;2.50;;
14251;SDS011;7210;51.502;10.722;2024-03-23T02:25:38;2.67;;;2.30;;
14251;SDS011;7210;51.502;10.722;2024-03-23T02:28:06;4.47;;;2.77;;
14251;SDS011;7210;51.502;10.722;2024-03-23T02:30:32;4.77;;;2.50;;
14251;SDS011;7210;51.502;10.722;2024-03-23T02:33:00;4.60;;;2.63;;
14251;SDS011;7210;51.502;10.722;2024-03-23T02:35:26;2.57;;;2.37;;
14251;SDS011;7210;51.502;10.722;2024-03-23T02:37:53;3.30;;;2.63;;
14251;SDS011;7210;51.502;10.722;2024-03-23T02:40:22;6.17;;;3.30;;
14251;SDS011;7210;51.502;10.722;2024-03-23T02:42:50;6.27;;;3.00;;
14251;SDS011;7210;51.502;10.722;2024-03-23T02:45:16;5.43;;;3.20;;
14251;SDS011;7210;51.502;10.722;2024-03-23T02:47:43;3.83;;;3.30;;
14251;SDS011;7210;51.502;10.722;2024-03-23T02:50:09;5.60;;;3.10;;
14251;SDS011;7210;51.502;10.722;2024-03-23T02:52:36;5.13;;;3.10;;
14251;SDS011;7210;51.502;10.722;2024-03-23T02:55:03;6.63;;;3.30;;
14251;SDS011;7210;51.502;10.722;2024-03-23T02:57:32;5.20;;;3.23;;
14251;SDS011;7210;51.502;10.722;2024-03-23T02:59:58;4.77;;;3.20;;
14251;SDS011;7210;51.502;10.722;2024-03-23T03:02:25;4.90;;;3.13;;
14251;SDS011;7210;51.502;10.722;2024-03-23T03:04:51;4.83;;;2.80;;
14251;SDS011;7210;51.502;10.722;2024-03-23T03:07:18;4.43;;;2.97;;
14251;SDS011;7210;51.502;10.722;2024-03-23T03:09:44;4.37;;;2.87;;
14251;SDS011;7210;51.502;10.722;2024-03-23T03:12:11;5.70;;;3.00;;
14251;SDS011;7210;51.502;10.722;2024-03-23T03:14:40;6.37;;;3.00;;
14251;SDS011;7210;51.502;10.722;2024-03-23T03:17:06;4.83;;;3.30;;
14251;SDS011;7210;51.502;10.722;2024-03-23T03:19:33;4.37;;;2.90;;
14251;SDS011;7210;51.502;10.722;2024-03-23T03:21:59;5.17;;;3.30;;
14251;SDS011;7210;51.502;10.722;2024-03-23T03:24:26;3.43;;;3.13;;
14251;SDS011;7210;51.502;10.722;2024-03-23T03:26:52;5.13;;;3.50;;
14251;SDS011;7210;51.502;10.722;2024-03-23T03:29:20;5.57;;;3.20;;
14251;SDS011;7210;51.502;10.722;2024-03-23T03:31:47;5.97;;;3.40;;
14251;SDS011;7210;51.502;10.722;2024-03-23T03:34:15;5.60;;;3.13;;
14251;SDS011;7210;51.502;10.722;2024-03-23T03:36:41;4.47;;;3.20;;
14251;SDS011;7210;51.502;10.722;2024-03-23T03:39:08;4.50;;;3.50;;
14251;SDS011;7210;51.502;10.722;2024-03-23T03:41:35;4.70;;;3.53;;
14251;SDS011;7210;51.502;10.722;2024-03-23T03:44:02;6.20;;;3.77;;
14251;SDS011;7210;51.502;10.722;2024-03-23T03:46:28;5.20;;;3.30;;
14251;SDS011;7210;51.502;10.722;2024-03-23T03:48:57;4.20;;;3.40;;
14251;SDS011;7210;51.502;10.722;2024-03-23T03:51:23;6.80;;;3.90;;
14251;SDS011;7210;51.502;10.722;2024-03-23T03:53:50;6.43;;;3.50;;
14251;SDS011;7210;51.502;10.722;2024-03-23T03:56:16;5.47;;;3.83;;
14251;SDS011;7210;51.502;10.722;2024-03-23T03:58:43;6.27;;;4.03;;
14251;SDS011;7210;51.502;10.722;2024-03-23T04:01:26;10.57;;;5.83;;
14251;SDS011;7210;51.502;10.722;2024-03-23T04:04:04;11.10;;;6.90;;
14251;SDS011;7210;51.502;10.722;2024-03-23T04:06:30;11.53;;;6.50;;
14251;SDS011;7210;51.502;10.722;2024-03-23T04:08:58;10.90;;;6.43;;
14251;SDS011;7210;51.502;10.722;2024-03-23T04:11:24;13.50;;;7.17;;
14251;SDS011;7210;51.502;10.722;2024-03-23T04:13:51;11.97;;;6.73;;
14251;SDS011;7210;51.502;10.722;2024-03-23T04:16:24;17.00;;;7.57;;
14251;SDS011;7210;51.502;10.722;2024-03-23T04:18:56;18.10;;;8.53;;
14251;SDS011;7210;51.502;10.722;2024-03-23T04:21:28;14.10;;;8.70;;
14251;SDS011;7210;51.502;10.722;2024-03-23T04:23:55;15.03;;;8.47;;
14251;SDS011;7210;51.502;10.722;2024-03-23T04:26:21;17.00;;;9.37;;
14251;SDS011;7210;51.502;10.722;2024-03-23T04:28:48;15.90;;;9.47;;
14251;SDS011;7210;51.502;10.722;2024-03-23T04:31:14;16.37;;;9.27;;
14251;SDS011;7210;51.502;10.722;2024-03-23T04:33:41;16.10;;;10.20;;
14251;SDS011;7210;51.502;10.722;2024-03-23T04:36:07;15.50;;;9.17;;
14251;SDS011;7210;51.502;10.722;2024-03-23T04:38:36;16.67;;;9.73;;
14251;SDS011;7210;51.502;10.722;2024-03-23T04:41:04;16.97;;;9.30;;
14251;SDS011;7210;51.502;10.722;2024-03-23T04:43:31;19.40;;;9.17;;
14251;SDS011;7210;51.502;10.722;2024-03-23T04:45:59;14.30;;;8.70;;
14251;SDS011;7210;51.502;10.722;2024-03-23T04:48:26;18.87;;;8.13;;
14251;SDS011;7210;51.502;10.722;2024-03-23T04:50:57;16.37;;;9.37;;
14251;SDS011;7210;51.502;10.722;2024-03-23T04:53:24;18.67;;;9.97;;
14251;SDS011;7210;51.502;10.722;2024-03-23T04:56:03;15.27;;;9.13;;
14251;SDS011;7210;51.502;10.722;2024-03-23T04:58:31;17.47;;;8.67;;
14251;SDS011;7210;51.502;10.722;2024-03-23T05:00:58;18.03;;;9.13;;
14251;SDS011;7210;51.502;10.722;2024-03-23T05:03:32;18.63;;;9.03;;
14251;SDS011;7210;51.502;10.722;2024-03-23T05:06:00;17.33;;;8.50;;
14251;SDS011;7210;51.502;10.722;2024-03-23T05:08:31;21.00;;;8.40;;
14251;SDS011;7210;51.502;10.722;2024-03-23T05:10:59;16.53;;;7.70;;
14251;SDS011;7210;51.502;10.722;2024-03-23T05:13:28;16.00;;;7.40;;
14251;SDS011;7210;51.502;10.722;2024-03-23T05:15:54;16.57;;;7.57;;
14251;SDS011;7210;51.502;10.722;2024-03-23T05:18:22;12.90;;;7.37;;
14251;SDS011;7210;51.502;10.722;2024-03-23T05:20:57;16.43;;;7.77;;
14251;SDS011;7210;51.502;10.722;2024-03-23T05:23:25;15.40;;;7.67;;
14251;SDS011;7210;51.502;10.722;2024-03-23T05:25:53;12.47;;;8.00;;
14251;SDS011;7210;51.502;10.722;2024-03-23T05:28:23;17.93;;;8.57;;
14251;SDS011;7210;51.502;10.722;2024-03-23T05:30:52;18.20;;;11.20;;
14251;SDS011;7210;51.502;10.722;2024-03-23T05:33:21;14.70;;;8.60;;
14251;SDS011;7210;51.502;10.722;2024-03-23T05:35:47;15.20;;;7.57;;
14251;SDS011;7210;51.502;10.722;2024-03-23T05:38:24;17.23;;;8.60;;
14251;SDS011;7210;51.502;10.722;2024-03-23T05:40:53;18.57;;;8.43;;
14251;SDS011;7210;51.502;10.722;2024-03-23T05:43:22;13.50;;;8.63;;
14251;SDS011;7210;51.502;10.722;2024-03-23T05:45:53;19.17;;;12.27;;
14251;SDS011;7210;51.502;10.722;2024-03-23T05:48:20;17.97;;;10.13;;
14251;SDS011;7210;51.502;10.722;2024-03-23T05:50:47;17.37;;;10.60;;
14251;SDS011;7210;51.502;10.722;2024-03-23T05:53:15;25.27;;;10.90;;
14251;SDS011;7210;51.502;10.722;2024-03-23T05:55:42;20.47;;;10.90;;
14251;SDS011;7210;51.502;10.722;2024-03-23T05:58:10;17.57;;;10.20;;
14251;SDS011;7210;51.502;10.722;2024-03-23T06:00:46;15.17;;;8.93;;
14251;SDS011;7210;51.502;10.722;2024-03-23T06:03:13;11.03;;;6.60;;
14251;SDS011;7210;51.502;10.722;2024-03-23T06:05:44;9.40;;;6.90;;
14251;SDS011;7210;51.502;10.722;2024-03-23T06:08:11;12.90;;;7.03;;
14251;SDS011;7210;51.502;10.722;2024-03-23T06:10:38;14.23;;;9.17;;
14251;SDS011;7210;51.502;10.722;2024-03-23T06:13:05;14.70;;;9.27;;
14251;SDS011;7210;51.502;10.722;2024-03-23T06:15:31;19.20;;;9.57;;
14251;SDS011;7210;51.502;10.722;2024-03-23T06:18:04;15.93;;;10.20;;
14251;SDS011;7210;51.502;10.722;2024-03-23T06:20:32;7.97;;;5.27;;
14251;SDS011;7210;51.502;10.722;2024-03-23T06:23:00;6.83;;;4.03;;
14251;SDS011;7210;51.502;10.722;2024-03-23T06:25:26;3.37;;;1.73;;
14251;SDS011;7210;51.502;10.722;2024-03-23T06:27:57;1.87;;;1.40;;
14251;SDS011;7210;51.502;10.722;2024-03-23T06:30:23;2.27;;;1.27;;
14251;SDS011;7210;51.502;10.722;2024-03-23T06:32:51;1.53;;;1.30;;
14251;SDS011;7210;51.502;10.722;2024-03-23T06:35:19;2.00;;;1.40;;
14251;SDS011;7210;51.502;10.722;2024-03-23T06:37:46;1.77;;;1.53;;
14251;SDS011;7210;51.502;10.722;2024-03-23T06:40:12;1.73;;;1.03;;
14251;SDS011;7210;51.502;10.722;2024-03-23T06:42:40;1.73;;;0.90;;
14251;SDS011;7210;51.502;10.722;2024-03-23T06:45:06;2.30;;;1.10;;
14251;SDS011;7210;51.502;10.722;2024-03-23T06:47:38;1.40;;;1.00;;
14251;SDS011;7210;51.502;10.722;2024-03-23T06:50:05;2.67;;;2.00;;
14251;SDS011;7210;51.502;10.722;2024-03-23T06:52:36;1.80;;;1.20;;
14251;SDS011;7210;51.502;10.722;2024-03-23T06:55:03;2.83;;;1.80;;
14251;SDS011;7210;51.502;10.722;2024-03-23T06:57:32;8.77;;;5.57;;
14251;SDS011;7210;51.502;10.722;2024-03-23T06:59:58;4.63;;;3.63;;
14251;SDS011;7210;51.502;10.722;2024-03-23T07:02:25;3.93;;;3.63;;
14251;SDS011;7210;51.502;10.722;2024-03-23T07:04:52;4.17;;;2.60;;
14251;SDS011;7210;51.502;10.722;2024-03-23T07:07:19;2.70;;;2.20;;
14251;SDS011;7210;51.502;10.722;2024-03-23T07:09:46;2.30;;;2.10;;
14251;SDS011;7210;51.502;10.722;2024-03-23T07:12:13;1.90;;;1.70;;
14251;SDS011;7210;51.502;10.722;2024-03-23T07:14:39;3.10;;;2.23;;
14251;SDS011;7210;51.502;10.722;2024-03-23T07:17:06;0.50;;;0.50;;
14251;SDS011;7210;51.502;10.722;2024-03-23T07:19:32;0.53;;;0.53;;
14251;SDS011;7210;51.502;10.722;2024-03-23T07:21:59;0.70;;;0.70;;
14251;SDS011;7210;51.502;10.722;2024-03-23T07:24:25;0.60;;;0.60;;
14251;SDS011;7210;51.502;10.722;2024-03-23T07:26:54;0.60;;;0.60;;
14251;SDS011;7210;51.502;10.722;2024-03-23T07:29:23;0.60;;;0.60;;
14251;SDS011;7210;51.502;10.722;2024-03-23T07:31:50;0.60;;;0.57;;
14251;SDS011;7210;51.502;10.722;2024-03-23T07:34:16;1.10;;;0.70;;
14251;SDS011;7210;51.502;10.722;2024-03-23T07:36:43;1.57;;;0.67;;
14251;SDS011;7210;51.502;10.722;2024-03-23T07:39:10;0.50;;;0.50;;
14251;SDS011;7210;51.502;10.722;2024-03-23T07:41:37;0.70;;;0.70;;
14251;SDS011;7210;51.502;10.722;2024-03-23T07:44:05;1.67;;;0.70;;
14251;SDS011;7210;51.502;10.722;2024-03-23T07:46:32;0.97;;;0.87;;
14251;SDS011;7210;51.502;10.722;2024-03-23T07:48:58;1.90;;;0.90;;
14251;SDS011;7210;51.502;10.722;2024-03-23T07:51:26;1.83;;;1.00;;
14251;SDS011;7210;51.502;10.722;2024-03-23T07:53:56;2.60;;;1.50;;
14251;SDS011;7210;51.502;10.722;2024-03-23T07:56:26;2.10;;;1.40;;
14251;SDS011;7210;51.502;10.722;2024-03-23T07:58:52;2.47;;;1.40;;
14251;SDS011;7210;51.502;10.722;2024-03-23T08:01:21;1.70;;;1.20;;
14251;SDS011;7210;51.502;10.722;2024-03-23T08:03:47;1.40;;;1.00;;
14251;SDS011;7210;51.502;10.722;2024-03-23T08:06:17;1.30;;;1.20;;
14251;SDS011;7210;51.502;10.722;2024-03-23T08:08:45;2.13;;;1.30;;
14251;SDS011;7210;51.502;10.722;2024-03-23T08:14:08;1.97;;;1.00;;
14251;SDS011;7210;51.502;10.722;2024-03-23T08:16:37;1.90;;;1.30;;
14251;SDS011;7210;51.502;10.722;2024-03-23T08:19:03;1.87;;;1.17;;
14251;SDS011;7210;51.502;10.722;2024-03-23T08:21:30;2.50;;;1.37;;
14251;SDS011;7210;51.502;10.722;2024-03-23T08:23:56;2.83;;;1.40;;
14251;SDS011;7210;51.502;10.722;2024-03-23T08:26:26;1.00;;;0.90;;
14251;SDS011;7210;51.502;10.722;2024-03-23T08:28:52;1.57;;;1.10;;
14251;SDS011;7210;51.502;10.722;2024-03-23T08:31:20;3.93;;;1.10;;
14251;SDS011;7210;51.502;10.722;2024-03-23T08:33:47;1.13;;;0.90;;
14251;SDS011;7210;51.502;10.722;2024-03-23T08:36:15;1.67;;;1.20;;
14251;SDS011;7210;51.502;10.722;2024-03-23T08:38:41;1.00;;;1.00;;
14251;SDS011;7210;51.502;10.722;2024-03-23T08:41:09;1.13;;;1.03;;
14251;SDS011;7210;51.502;10.722;2024-03-23T08:43:36;1.30;;;0.90;;
14251;SDS011;7210;51.502;10.722;2024-03-23T08:46:05;1.13;;;1.00;;
14251;SDS011;7210;51.502;10.722;2024-03-23T08:48:33;1.17;;;1.00;;
14251;SDS011;7210;51.502;10.722;2024-03-23T08:51:03;2.43;;;1.50;;
14251;SDS011;7210;51.502;10.722;2024-03-23T08:53:30;2.40;;;1.40;;
14251;SDS011;7210;51.502;10.722;2024-03-23T08:55:58;5.37;;;2.17;;
14251;SDS011;7210;51.502;10.722;2024-03-23T08:58:26;1.73;;;1.50;;
14251;SDS011;7210;51.502;10.722;2024-03-23T09:00:57;2.30;;;1.43;;
14251;SDS011;7210;51.502;10.722;2024-03-23T09:03:30;3.43;;;2.30;;
14251;SDS011;7210;51.502;10.722;2024-03-23T09:05:57;1.97;;;1.23;;
14251;SDS011;7210;51.502;10.722;2024-03-23T09:08:28;3.40;;;1.63;;
14251;SDS011;7210;51.502;10.722;2024-03-23T09:10:55;2.37;;;1.67;;
14251;SDS011;7210;51.502;10.722;2024-03-23T09:13:26;4.83;;;2.13;;
14251;SDS011;7210;51.502;10.722;2024-03-23T09:15:56;4.53;;;1.80;;
14251;SDS011;7210;51.502;10.722;2024-03-23T09:18:22;3.63;;;1.83;;
14251;SDS011;7210;51.502;10.722;2024-03-23T09:20:50;3.53;;;2.00;;
14251;SDS011;7210;51.502;10.722;2024-03-23T09:23:18;2.77;;;1.77;;
14251;SDS011;7210;51.502;10.722;2024-03-23T09:25:47;4.60;;;1.77;;
14251;SDS011;7210;51.502;10.722;2024-03-23T09:28:14;3.43;;;2.00;;
14251;SDS011;7210;51.502;10.722;2024-03-23T09:30:42;3.27;;;2.00;;
14251;SDS011;7210;51.502;10.722;2024-03-23T09:33:08;4.57;;;1.93;;
14251;SDS011;7210;51.502;10.722;2024-03-23T09:35:38;4.90;;;2.10;;
14251;SDS011;7210;51.502;10.722;2024-03-23T09:38:05;3.10;;;2.20;;
14251;SDS011;7210;51.502;10.722;2024-03-23T09:40:34;3.30;;;1.93;;
14251;SDS011;7210;51.502;10.722;2024-03-23T09:43:07;3.23;;;2.50;;
14251;SDS011;7210;51.502;10.722;2024-03-23T09:45:35;3.73;;;2.13;;
14251;SDS011;7210;51.502;10.722;2024-03-23T09:48:06;3.73;;;1.90;;
14251;SDS011;7210;51.502;10.722;2024-03-23T09:50:35;3.43;;;2.07;;
14251;SDS011;7210;51.502;10.722;2024-03-23T09:53:02;3.90;;;2.07;;
14251;SDS011;7210;51.502;10.722;2024-03-23T09:55:30;4.13;;;2.23;;
14251;SDS011;7210;51.502;10.722;2024-03-23T09:57:56;4.17;;;2.23;;
14251;SDS011;7210;51.502;10.722;2024-03-23T10:00:25;10.13;;;3.17;;
14251;SDS011;7210;51.502;10.722;2024-03-23T10:02:51;3.83;;;2.33;;
14251;SDS011;7210;51.502;10.722;2024-03-23T10:05:23;6.10;;;2.37;;
14251;SDS011;7210;51.502;10.722;2024-03-23T10:07:49;6.07;;;2.30;;
14251;SDS011;7210;51.502;10.722;2024-03-23T10:10:17;9.63;;;2.37;;
14251;SDS011;7210;51.502;10.722;2024-03-23T10:12:44;6.67;;;2.80;;
14251;SDS011;7210;51.502;10.722;2024-03-23T10:15:17;6.90;;;2.53;;
14251;SDS011;7210;51.502;10.722;2024-03-23T10:17:46;6.40;;;3.23;;
14251;SDS011;7210;51.502;10.722;2024-03-23T10:20:15;7.93;;;3.17;;
14251;SDS011;7210;51.502;10.722;2024-03-23T10:22:45;6.70;;;3.00;;
14251;SDS011;7210;51.502;10.722;2024-03-23T10:25:13;6.43;;;3.13;;
14251;SDS011;7210;51.502;10.722;2024-03-23T10:27:39;8.40;;;3.80;;
14251;SDS011;7210;51.502;10.722;2024-03-23T10:30:08;7.07;;;3.17;;
14251;SDS011;7210;51.502;10.722;2024-03-23T10:32:36;8.83;;;3.50;;
14251;SDS011;7210;51.502;10.722;2024-03-23T10:35:15;12.17;;;5.00;;
14251;SDS011;7210;51.502;10.722;2024-03-23T10:37:44;11.43;;;4.70;;
14251;SDS011;7210;51.502;10.722;2024-03-23T10:40:15;8.50;;;4.30;;
14251;SDS011;7210;51.502;10.722;2024-03-23T10:42:43;12.20;;;4.90;;
14251;SDS011;7210;51.502;10.722;2024-03-23T10:45:11;11.27;;;4.70;;
14251;SDS011;7210;51.502;10.722;2024-03-23T10:47:37;11.60;;;4.67;;
14251;SDS011;7210;51.502;10.722;2024-03-23T10:50:04;9.00;;;4.90;;
14251;SDS011;7210;51.502;10.722;2024-03-23T10:52:33;10.33;;;4.60;;
14251;SDS011;7210;51.502;10.722;2024-03-23T10:55:01;12.10;;;4.77;;
14251;SDS011;7210;51.502;10.722;2024-03-23T10:57:34;11.40;;;4.60;;
14251;SDS011;7210;51.502;10.722;2024-03-23T11:00:08;7.43;;;4.47;;
14251;SDS011;7210;51.502;10.722;2024-03-23T11:02:36;12.63;;;4.90;;
14251;SDS011;7210;51.502;10.722;2024-03-23T11:05:07;13.83;;;6.20;;
14251;SDS011;7210;51.502;10.722;2024-03-23T11:07:57;10.20;;;5.30;;
14251;SDS011;7210;51.502;10.722;2024-03-23T11:10:25;12.17;;;5.53;;
14251;SDS011;7210;51.502;10.722;2024-03-23T11:12:54;14.13;;;5.00;;
14251;SDS011;7210;51.502;10.722;2024-03-23T11:15:21;10.43;;;4.97;;
14251;SDS011;7210;51.502;10.722;2024-03-23T11:18:03;11.87;;;5.10;;
14251;SDS011;7210;51.502;10.722;2024-03-23T11:20:33;7.60;;;5.27;;
14251;SDS011;7210;51.502;10.722;2024-03-23T11:23:02;10.67;;;5.20;;
14251;SDS011;7210;51.502;10.722;2024-03-23T11:25:31;11.07;;;4.90;;
14251;SDS011;7210;51.502;10.722;2024-03-23T11:28:09;12.00;;;4.77;;
14251;SDS011;7210;51.502;10.722;2024-03-23T11:30:38;9.63;;;4.77;;
14251;SDS011;7210;51.502;10.722;2024-03-23T11:33:05;9.10;;;4.43;;
14251;SDS011;7210;51.502;10.722;2024-03-23T11:35:33;7.30;;;4.50;;
14251;SDS011;7210;51.502;10.722;2024-03-23T11:38:04;7.77;;;5.20;;
14251;SDS011;7210;51.502;10.722;2024-03-23T11:40:39;10.00;;;5.57;;
14251;SDS011;7210;51.502;10.722;2024-03-23T11:43:08;11.90;;;6.00;;
14251;SDS011;7210;51.502;10.722;2024-03-23T11:45:37;9.67;;;5.63;;
14251;SDS011;7210;51.502;10.722;2024-03-23T11:48:06;12.10;;;6.27;;
14251;SDS011;7210;51.502;10.722;2024-03-23T11:50:36;10.27;;;7.17;;
14251;SDS011;7210;51.502;10.722;2024-03-23T11:53:14;15.43;;;6.93;;
14251;SDS011;7210;51.502;10.722;2024-03-23T11:55:45;10.77;;;6.23;;
14251;SDS011;7210;51.502;10.722;2024-03-23T11:58:13;9.67;;;6.00;;
14251;SDS011;7210;51.502;10.722;2024-03-23T12:00:42;9.73;;;6.17;;
14251;SDS011;7210;51.502;10.722;2024-03-23T12:03:21;8.30;;;6.00;;
14251;SDS011;7210;51.502;10.722;2024-03-23T12:05:51;9.70;;;6.13;;
14251;SDS011;7210;51.502;10.722;2024-03-23T12:08:21;11.77;;;5.30;;
14251;SDS011;7210;51.502;10.722;2024-03-23T12:10:51;9.43;;;5.60;;
14251;SDS011;7210;51.502;10.722;2024-03-23T12:13:29;7.90;;;4.90;;
14251;SDS011;7210;51.502;10.722;2024-03-23T12:15:58;9.50;;;5.77;;
14251;SDS011;7210;51.502;10.722;2024-03-23T12:18:35;8.97;;;5.73;;
14251;SDS011;7210;51.502;10.722;2024-03-23T12:21:09;8.50;;;5.67;;
14251;SDS011;7210;51.502;10.722;2024-03-23T12:23:38;8.87;;;6.07;;
14251;SDS011;7210;51.502;10.722;2024-03-23T12:26:06;7.97;;;5.73;;
14251;SDS011;7210;51.502;10.722;2024-03-23T12:28:33;6.77;;;4.47;;
14251;SDS011;7210;51.502;10.722;2024-03-23T12:31:03;8.23;;;4.93;;
14251;SDS011;7210;51.502;10.722;2024-03-23T12:33:29;9.83;;;5.73;;
14251;SDS011;7210;51.502;10.722;2024-03-23T12:35:56;6.13;;;5.07;;
14251;SDS011;7210;51.502;10.722;2024-03-23T12:38:23;7.47;;;6.00;;
14251;SDS011;7210;51.502;10.722;2024-03-23T12:40:51;10.30;;;6.03;;
14251;SDS011;7210;51.502;10.722;2024-03-23T12:43:21;11.10;;;6.33;;
14251;SDS011;7210;51.502;10.722;2024-03-23T12:45:48;8.73;;;6.33;;
14251;SDS011;7210;51.502;10.722;2024-03-23T12:48:14;9.10;;;6.60;;
14251;SDS011;7210;51.502;10.722;2024-03-23T12:50:42;8.93;;;6.70;;
14251;SDS011;7210;51.502;10.722;2024-03-23T12:53:15;12.27;;;6.73;;
14251;SDS011;7210;51.502;10.722;2024-03-23T12:55:42;10.97;;;7.07;;
14251;SDS011;7210;51.502;10.722;2024-03-23T12:58:09;13.00;;;7.87;;
14251;SDS011;7210;51.502;10.722;2024-03-23T13:00:39;12.93;;;7.97;;
14251;SDS011;7210;51.502;10.722;2024-03-23T13:03:09;11.83;;;7.27;;
14251;SDS011;7210;51.502;10.722;2024-03-23T13:05:40;13.00;;;7.97;;
14251;SDS011;7210;51.502;10.722;2024-03-23T13:08:06;11.43;;;7.97;;
14251;SDS011;7210;51.502;10.722;2024-03-23T13:10:33;12.63;;;7.60;;
14251;SDS011;7210;51.502;10.722;2024-03-23T13:12:59;10.27;;;7.43;;
14251;SDS011;7210;51.502;10.722;2024-03-23T13:15:28;11.80;;;7.17;;
14251;SDS011;7210;51.502;10.722;2024-03-23T13:17:54;7.40;;;6.43;;
14251;SDS011;7210;51.502;10.722;2024-03-23T13:20:21;9.07;;;6.47;;
14251;SDS011;7210;51.502;10.722;2024-03-23T13:22:47;10.13;;;6.53;;
14251;SDS011;7210;51.502;10.722;2024-03-23T13:25:17;9.20;;;6.20;;
14251;SDS011;7210;51.502;10.722;2024-03-23T13:27:44;4.63;;;4.00;;
14251;SDS011;7210;51.502;10.722;2024-03-23T13:30:11;3.77;;;3.30;;
14251;SDS011;7210;51.502;10.722;2024-03-23T13:32:39;4.50;;;3.60;;
14251;SDS011;7210;51.502;10.722;2024-03-23T13:35:06;4.70;;;4.30;;
14251;SDS011;7210;51.502;10.722;2024-03-23T13:37:33;5.43;;;4.17;;
14251;SDS011;7210;51.502;10.722;2024-03-23T13:40:00;5.73;;;5.17;;
14251;SDS011;7210;51.502;10.722;2024-03-23T13:42:26;5.87;;;4.80;;
14251;SDS011;7210;51.502;10.722;2024-03-23T13:44:53;4.80;;;4.20;;
14251;SDS011;7210;51.502;10.722;2024-03-23T13:47:19;5.17;;;3.47;;
14251;SDS011;7210;51.502;10.722;2024-03-23T13:49:47;4.80;;;3.80;;
14251;SDS011;7210;51.502;10.722;2024-03-23T13:52:15;3.73;;;3.40;;
14251;SDS011;7210;51.502;10.722;2024-03-23T13:54:45;4.37;;;3.30;;
14251;SDS011;7210;51.502;10.722;2024-03-23T13:57:11;3.63;;;3.33;;
14251;SDS011;7210;51.502;10.722;2024-03-23T13:59:38;3.87;;;3.53;;
14251;SDS011;7210;51.502;10.722;2024-03-23T14:02:09;4.10;;;3.80;;
14251;SDS011;7210;51.502;10.722;2024-03-23T14:04:36;4.70;;;3.43;;
14251;SDS011;7210;51.502;10.722;2024-03-23T14:07:05;3.80;;;3.20;;
14251;SDS011;7210;51.502;10.722;2024-03-23T14:09:34;5.77;;;3.30;;
14251;SDS011;7210;51.502;10.722;2024-03-23T14:12:00;5.00;;;2.87;;
14251;SDS011;7210;51.502;10.722;2024-03-23T14:14:27;4.30;;;3.47;;
14251;SDS011;7210;51.502;10.722;2024-03-23T14:16:53;3.30;;;3.00;;
14251;SDS011;7210;51.502;10.722;2024-03-23T14:19:20;7.13;;;3.20;;
14251;SDS011;7210;51.502;10.722;2024-03-23T14:21:46;5.43;;;3.47;;
14251;SDS011;7210;51.502;10.722;2024-03-23T14:24:15;3.67;;;3.00;;
14251;SDS011;7210;51.502;10.722;2024-03-23T14:26:42;4.63;;;3.20;;
14251;SDS011;7210;51.502;10.722;2024-03-23T14:29:09;6.60;;;3.40;;
14251;SDS011;7210;51.502;10.722;2024-03-23T14:31:36;4.83;;;2.87;;
14251;SDS011;7210;51.502;10.722;2024-03-23T14:34:03;6.77;;;2.90;;
14251;SDS011;7210;51.502;10.722;2024-03-23T14:36:29;5.37;;;2.83;;
14251;SDS011;7210;51.502;10.722;2024-03-23T14:38:56;4.10;;;2.70;;
14251;SDS011;7210;51.502;10.722;2024-03-23T14:41:24;5.77;;;2.80;;
14251;SDS011;7210;51.502;10.722;2024-03-23T14:43:51;4.80;;;2.97;;
14251;SDS011;7210;51.502;10.722;2024-03-23T14:46:19;4.37;;;2.47;;
14251;SDS011;7210;51.502;10.722;2024-03-23T14:48:46;3.13;;;2.83;;
14251;SDS011;7210;51.502;10.722;2024-03-23T14:51:12;4.83;;;2.60;;
14251;SDS011;7210;51.502;10.722;2024-03-23T14:53:45;4.63;;;2.90;;
14251;SDS011;7210;51.502;10.722;2024-03-23T14:56:11;5.90;;;3.00;;
14251;SDS011;7210;51.502;10.722;2024-03-23T14:58:42;6.40;;;2.90;;
14251;SDS011;7210;51.502;10.722;2024-03-23T15:01:08;5.30;;;3.13;;
14251;SDS011;7210;51.502;10.722;2024-03-23T15:03:36;5.37;;;2.80;;
14251;SDS011;7210;51.502;10.722;2024-03-23T15:06:04;5.77;;;3.37;;
14251;SDS011;7210;51.502;10.722;2024-03-23T15:08:34;3.27;;;2.07;;
14251;SDS011;7210;51.502;10.722;2024-03-23T15:11:01;2.50;;;2.23;;
14251;SDS011;7210;51.502;10.722;2024-03-23T15:13:30;2.60;;;2.03;;
14251;SDS011;7210;51.502;10.722;2024-03-23T15:15:58;3.67;;;2.63;;
14251;SDS011;7210;51.502;10.722;2024-03-23T15:18:25;4.13;;;2.60;;
14251;SDS011;7210;51.502;10.722;2024-03-23T15:20:51;3.47;;;2.70;;
14251;SDS011;7210;51.502;10.722;2024-03-23T15:23:19;3.07;;;2.73;;
14251;SDS011;7210;51.502;10.722;2024-03-23T15:25:53;6.13;;;3.57;;
14251;SDS011;7210;51.502;10.722;2024-03-23T15:28:21;3.27;;;2.83;;
14251;SDS011;7210;51.502;10.722;2024-03-23T15:30:48;3.07;;;2.77;;
14251;SDS011;7210;51.502;10.722;2024-03-23T15:33:16;3.13;;;2.30;;
14251;SDS011;7210;51.502;10.722;2024-03-23T15:35:42;3.00;;;1.93;;
14251;SDS011;7210;51.502;10.722;2024-03-23T15:38:09;3.13;;;2.00;;
14251;SDS011;7210;51.502;10.722;2024-03-23T15:40:36;3.37;;;2.03;;
14251;SDS011;7210;51.502;10.722;2024-03-23T15:43:05;2.30;;;2.10;;